sensor_id;sensor_type;location;lat;lon;timestamp;temperature;humidity
23475;DHT22;11910;52.086;21.066;2023-07-09T00:01:21;16.70;81.90
23475;DHT22;11910;52.086;21.066;2023-07-09T00:03:47;16.70;82.20
23475;DHT22;11910;52.086;21.066;2023-07-09T00:06:19;16.70;82.60
23475;DHT22;11910;52.086;21.066;2023-07-09T00:08:46;16.60;82.80
23475;DHT22;11910;52.086;21.066;2023-07-09T00:11:14;16.60;82.10
23475;DHT22;11910;52.086;21.066;2023-07-09T00:13:40;16.60;82.90
23475;DHT22;11910;52.086;21.066;2023-07-09T00:16:12;16.60;82.90
23475;DHT22;11910;52.086;21.066;2023-07-09T00:18:39;16.70;83.00
23475;DHT22;11910;52.086;21.066;2023-07-09T00:21:05;16.70;81.80
23475;DHT22;11910;52.086;21.066;2023-07-09T00:23:31;16.70;82.30
23475;DHT22;11910;52.086;21.066;2023-07-09T00:25:56;16.70;82.20
23475;DHT22;11910;52.086;21.066;2023-07-09T00:28:22;16.70;82.50
23475;DHT22;11910;52.086;21.066;2023-07-09T00:30:48;16.70;83.00
23475;DHT22;11910;52.086;21.066;2023-07-09T00:33:15;16.70;82.50
23475;DHT22;11910;52.086;21.066;2023-07-09T00:35:42;16.80;81.90
23475;DHT22;11910;52.086;21.066;2023-07-09T00:38:13;16.80;81.50
23475;DHT22;11910;52.086;21.066;2023-07-09T00:40:46;16.70;82.40
23475;DHT22;11910;52.086;21.066;2023-07-09T00:43:15;16.80;83.00
23475;DHT22;11910;52.086;21.066;2023-07-09T00:45:41;16.80;82.60
23475;DHT22;11910;52.086;21.066;2023-07-09T00:48:12;16.80;82.20
23475;DHT22;11910;52.086;21.066;2023-07-09T00:50:40;16.80;82.90
23475;DHT22;11910;52.086;21.066;2023-07-09T00:53:22;16.80;83.00
23475;DHT22;11910;52.086;21.066;2023-07-09T00:55:58;16.80;83.50
23475;DHT22;11910;52.086;21.066;2023-07-09T00:58:24;16.80;82.90
23475;DHT22;11910;52.086;21.066;2023-07-09T01:00:56;16.90;82.70
23475;DHT22;11910;52.086;21.066;2023-07-09T01:03:35;16.90;83.30
23475;DHT22;11910;52.086;21.066;2023-07-09T01:06:02;16.90;82.90
23475;DHT22;11910;52.086;21.066;2023-07-09T01:08:31;16.90;83.00
23475;DHT22;11910;52.086;21.066;2023-07-09T01:10:58;17.00;82.90
23475;DHT22;11910;52.086;21.066;2023-07-09T01:13:28;17.00;83.20
23475;DHT22;11910;52.086;21.066;2023-07-09T01:15:54;17.00;83.50
23475;DHT22;11910;52.086;21.066;2023-07-09T01:18:21;17.00;82.70
23475;DHT22;11910;52.086;21.066;2023-07-09T01:20:47;17.00;82.50
23475;DHT22;11910;52.086;21.066;2023-07-09T01:23:13;17.00;82.50
23475;DHT22;11910;52.086;21.066;2023-07-09T01:25:44;17.00;82.90
23475;DHT22;11910;52.086;21.066;2023-07-09T01:28:10;17.00;81.70
23475;DHT22;11910;52.086;21.066;2023-07-09T01:30:37;17.00;82.20
23475;DHT22;11910;52.086;21.066;2023-07-09T01:33:03;17.00;82.50
23475;DHT22;11910;52.086;21.066;2023-07-09T01:35:34;16.90;82.10
23475;DHT22;11910;52.086;21.066;2023-07-09T01:38:00;16.90;82.30
23475;DHT22;11910;52.086;21.066;2023-07-09T01:40:27;16.80;82.80
23475;DHT22;11910;52.086;21.066;2023-07-09T01:42:54;16.80;82.70
23475;DHT22;11910;52.086;21.066;2023-07-09T01:45:24;16.80;82.80
23475;DHT22;11910;52.086;21.066;2023-07-09T01:47:50;16.80;82.50
23475;DHT22;11910;52.086;21.066;2023-07-09T01:50:16;16.80;83.10
23475;DHT22;11910;52.086;21.066;2023-07-09T01:52:43;16.80;84.00
23475;DHT22;11910;52.086;21.066;2023-07-09T01:55:13;16.80;83.60
23475;DHT22;11910;52.086;21.066;2023-07-09T01:57:42;16.80;83.20
23475;DHT22;11910;52.086;21.066;2023-07-09T02:00:11;16.80;83.20
23475;DHT22;11910;52.086;21.066;2023-07-09T02:02:39;16.80;83.10
23475;DHT22;11910;52.086;21.066;2023-07-09T02:05:09;16.80;83.50
23475;DHT22;11910;52.086;21.066;2023-07-09T02:07:35;16.80;83.50
23475;DHT22;11910;52.086;21.066;2023-07-09T02:10:01;16.70;82.90
23475;DHT22;11910;52.086;21.066;2023-07-09T02:12:26;16.70;83.00
23475;DHT22;11910;52.086;21.066;2023-07-09T02:14:52;16.70;83.30
23475;DHT22;11910;52.086;21.066;2023-07-09T02:17:18;16.70;83.10
23475;DHT22;11910;52.086;21.066;2023-07-09T02:19:44;16.70;83.20
23475;DHT22;11910;52.086;21.066;2023-07-09T02:22:11;16.70;83.10
23475;DHT22;11910;52.086;21.066;2023-07-09T02:24:37;16.70;82.90
23475;DHT22;11910;52.086;21.066;2023-07-09T02:27:04;16.70;83.20
23475;DHT22;11910;52.086;21.066;2023-07-09T02:29:31;16.60;82.50
23475;DHT22;11910;52.086;21.066;2023-07-09T02:31:59;16.60;82.70
23475;DHT22;11910;52.086;21.066;2023-07-09T02:34:26;16.60;82.70
23475;DHT22;11910;52.086;21.066;2023-07-09T02:36:53;16.60;83.50
23475;DHT22;11910;52.086;21.066;2023-07-09T02:39:19;16.60;82.50
23475;DHT22;11910;52.086;21.066;2023-07-09T02:41:46;16.50;82.80
23475;DHT22;11910;52.086;21.066;2023-07-09T02:44:11;16.50;84.00
23475;DHT22;11910;52.086;21.066;2023-07-09T02:46:37;16.50;84.40
23475;DHT22;11910;52.086;21.066;2023-07-09T02:49:08;16.60;84.80
23475;DHT22;11910;52.086;21.066;2023-07-09T02:51:35;16.60;84.90
23475;DHT22;11910;52.086;21.066;2023-07-09T02:54:04;16.60;85.10
23475;DHT22;11910;52.086;21.066;2023-07-09T02:56:30;16.60;84.80
23475;DHT22;11910;52.086;21.066;2023-07-09T02:58:56;16.60;84.80
23475;DHT22;11910;52.086;21.066;2023-07-09T03:01:22;16.70;85.00
23475;DHT22;11910;52.086;21.066;2023-07-09T03:03:51;16.70;84.80
23475;DHT22;11910;52.086;21.066;2023-07-09T03:06:19;16.70;84.90
23475;DHT22;11910;52.086;21.066;2023-07-09T03:08:45;16.70;84.90
23475;DHT22;11910;52.086;21.066;2023-07-09T03:11:11;16.80;85.10
23475;DHT22;11910;52.086;21.066;2023-07-09T03:13:37;16.80;85.20
23475;DHT22;11910;52.086;21.066;2023-07-09T03:16:04;16.80;85.00
23475;DHT22;11910;52.086;21.066;2023-07-09T03:18:30;16.80;85.40
23475;DHT22;11910;52.086;21.066;2023-07-09T03:20:56;16.80;84.90
23475;DHT22;11910;52.086;21.066;2023-07-09T03:23:22;16.80;85.80
23475;DHT22;11910;52.086;21.066;2023-07-09T03:25:47;16.90;85.80
23475;DHT22;11910;52.086;21.066;2023-07-09T03:28:13;16.90;86.00
23475;DHT22;11910;52.086;21.066;2023-07-09T03:30:46;16.90;85.80
23475;DHT22;11910;52.086;21.066;2023-07-09T03:33:13;16.90;85.40
23475;DHT22;11910;52.086;21.066;2023-07-09T03:35:40;17.00;85.70
23475;DHT22;11910;52.086;21.066;2023-07-09T03:38:07;16.90;85.50
23475;DHT22;11910;52.086;21.066;2023-07-09T03:40:33;17.00;85.90
23475;DHT22;11910;52.086;21.066;2023-07-09T03:42:59;17.00;85.90
23475;DHT22;11910;52.086;21.066;2023-07-09T03:45:25;17.10;86.50
23475;DHT22;11910;52.086;21.066;2023-07-09T03:47:50;17.10;86.20
23475;DHT22;11910;52.086;21.066;2023-07-09T03:50:16;17.20;85.80
23475;DHT22;11910;52.086;21.066;2023-07-09T03:52:42;17.20;86.00
23475;DHT22;11910;52.086;21.066;2023-07-09T03:55:08;16.50;99.90
23475;DHT22;11910;52.086;21.066;2023-07-09T03:57:34;16.70;99.90
23475;DHT22;11910;52.086;21.066;2023-07-09T04:00:01;17.00;99.90
23475;DHT22;11910;52.086;21.066;2023-07-09T04:02:26;17.00;99.90
23475;DHT22;11910;52.086;21.066;2023-07-09T04:04:52;17.00;99.90
23475;DHT22;11910;52.086;21.066;2023-07-09T04:07:19;17.10;99.90
23475;DHT22;11910;52.086;21.066;2023-07-09T04:09:45;17.00;99.90
23475;DHT22;11910;52.086;21.066;2023-07-09T04:12:10;17.00;99.90
23475;DHT22;11910;52.086;21.066;2023-07-09T04:14:36;16.90;99.90
23475;DHT22;11910;52.086;21.066;2023-07-09T04:17:02;16.90;99.90
23475;DHT22;11910;52.086;21.066;2023-07-09T04:19:27;16.90;99.90
23475;DHT22;11910;52.086;21.066;2023-07-09T04:21:53;17.00;99.90
23475;DHT22;11910;52.086;21.066;2023-07-09T04:24:19;16.90;99.90
23475;DHT22;11910;52.086;21.066;2023-07-09T04:26:45;17.00;99.90
23475;DHT22;11910;52.086;21.066;2023-07-09T04:29:11;17.00;99.90
23475;DHT22;11910;52.086;21.066;2023-07-09T04:31:37;16.90;99.90
23475;DHT22;11910;52.086;21.066;2023-07-09T04:34:03;16.90;99.90
23475;DHT22;11910;52.086;21.066;2023-07-09T04:36:29;16.90;99.90
23475;DHT22;11910;52.086;21.066;2023-07-09T04:38:54;16.90;99.90
23475;DHT22;11910;52.086;21.066;2023-07-09T04:41:20;17.00;99.90
23475;DHT22;11910;52.086;21.066;2023-07-09T04:43:45;17.00;99.90
23475;DHT22;11910;52.086;21.066;2023-07-09T04:46:11;17.00;99.90
23475;DHT22;11910;52.086;21.066;2023-07-09T04:48:37;17.00;99.90
23475;DHT22;11910;52.086;21.066;2023-07-09T04:51:04;17.00;99.90
23475;DHT22;11910;52.086;21.066;2023-07-09T04:53:30;17.00;99.90
23475;DHT22;11910;52.086;21.066;2023-07-09T04:55:56;17.00;99.90
23475;DHT22;11910;52.086;21.066;2023-07-09T04:58:22;17.10;99.90
23475;DHT22;11910;52.086;21.066;2023-07-09T05:00:48;17.20;99.90
23475;DHT22;11910;52.086;21.066;2023-07-09T05:03:16;17.10;99.90
23475;DHT22;11910;52.086;21.066;2023-07-09T05:05:46;17.20;99.90
23475;DHT22;11910;52.086;21.066;2023-07-09T05:08:13;17.20;99.90
23475;DHT22;11910;52.086;21.066;2023-07-09T05:10:45;17.20;99.90
23475;DHT22;11910;52.086;21.066;2023-07-09T05:13:12;17.20;99.90
23475;DHT22;11910;52.086;21.066;2023-07-09T05:15:46;17.20;99.90
23475;DHT22;11910;52.086;21.066;2023-07-09T05:18:13;17.20;99.90
23475;DHT22;11910;52.086;21.066;2023-07-09T05:20:39;17.30;99.90
23475;DHT22;11910;52.086;21.066;2023-07-09T05:23:05;17.30;99.90
23475;DHT22;11910;52.086;21.066;2023-07-09T05:25:31;17.40;99.90
23475;DHT22;11910;52.086;21.066;2023-07-09T05:27:57;17.40;99.90
23475;DHT22;11910;52.086;21.066;2023-07-09T05:30:23;17.40;99.90
23475;DHT22;11910;52.086;21.066;2023-07-09T05:32:49;17.40;99.90
23475;DHT22;11910;52.086;21.066;2023-07-09T05:35:14;17.50;99.90
23475;DHT22;11910;52.086;21.066;2023-07-09T05:37:40;17.70;99.90
23475;DHT22;11910;52.086;21.066;2023-07-09T05:40:07;17.70;99.90
23475;DHT22;11910;52.086;21.066;2023-07-09T05:42:33;17.90;99.90
23475;DHT22;11910;52.086;21.066;2023-07-09T05:44:59;17.90;99.90
23475;DHT22;11910;52.086;21.066;2023-07-09T05:47:26;17.90;99.90
23475;DHT22;11910;52.086;21.066;2023-07-09T05:49:51;18.00;99.90
23475;DHT22;11910;52.086;21.066;2023-07-09T05:52:18;18.00;99.90
23475;DHT22;11910;52.086;21.066;2023-07-09T05:54:44;18.10;99.90
23475;DHT22;11910;52.086;21.066;2023-07-09T05:57:10;18.20;99.90
23475;DHT22;11910;52.086;21.066;2023-07-09T05:59:36;18.20;99.90
23475;DHT22;11910;52.086;21.066;2023-07-09T06:02:02;18.30;99.90
23475;DHT22;11910;52.086;21.066;2023-07-09T06:04:29;18.30;99.90
23475;DHT22;11910;52.086;21.066;2023-07-09T06:06:56;18.30;99.90
23475;DHT22;11910;52.086;21.066;2023-07-09T06:09:23;18.40;99.90
23475;DHT22;11910;52.086;21.066;2023-07-09T06:11:49;18.50;99.90
23475;DHT22;11910;52.086;21.066;2023-07-09T06:14:14;18.60;99.90
23475;DHT22;11910;52.086;21.066;2023-07-09T06:16:42;18.60;99.90
23475;DHT22;11910;52.086;21.066;2023-07-09T06:19:09;18.60;99.90
23475;DHT22;11910;52.086;21.066;2023-07-09T06:21:34;18.80;99.90
23475;DHT22;11910;52.086;21.066;2023-07-09T06:24:00;18.90;99.90
23475;DHT22;11910;52.086;21.066;2023-07-09T06:26:26;18.90;99.90
23475;DHT22;11910;52.086;21.066;2023-07-09T06:28:51;19.00;99.90
23475;DHT22;11910;52.086;21.066;2023-07-09T06:31:17;19.00;99.90
23475;DHT22;11910;52.086;21.066;2023-07-09T06:33:44;19.00;99.90
23475;DHT22;11910;52.086;21.066;2023-07-09T06:36:10;19.20;99.90
23475;DHT22;11910;52.086;21.066;2023-07-09T06:38:35;19.30;99.90
23475;DHT22;11910;52.086;21.066;2023-07-09T06:41:01;19.50;99.90
23475;DHT22;11910;52.086;21.066;2023-07-09T06:43:27;19.60;99.90
23475;DHT22;11910;52.086;21.066;2023-07-09T06:45:56;19.70;99.90
23475;DHT22;11910;52.086;21.066;2023-07-09T06:48:23;19.90;99.90
23475;DHT22;11910;52.086;21.066;2023-07-09T06:50:48;20.00;99.90
23475;DHT22;11910;52.086;21.066;2023-07-09T06:53:15;20.10;99.90
23475;DHT22;11910;52.086;21.066;2023-07-09T06:55:41;20.20;99.90
23475;DHT22;11910;52.086;21.066;2023-07-09T06:58:07;20.30;99.90
23475;DHT22;11910;52.086;21.066;2023-07-09T07:00:35;20.40;99.90
23475;DHT22;11910;52.086;21.066;2023-07-09T07:03:00;20.50;99.90
23475;DHT22;11910;52.086;21.066;2023-07-09T07:05:26;20.70;99.90
23475;DHT22;11910;52.086;21.066;2023-07-09T07:07:52;20.80;99.90
23475;DHT22;11910;52.086;21.066;2023-07-09T07:10:19;20.90;99.90
23475;DHT22;11910;52.086;21.066;2023-07-09T07:12:46;21.00;99.90
23475;DHT22;11910;52.086;21.066;2023-07-09T07:15:14;21.20;99.90
23475;DHT22;11910;52.086;21.066;2023-07-09T07:17:41;21.50;99.90
23475;DHT22;11910;52.086;21.066;2023-07-09T07:20:08;21.60;99.90
23475;DHT22;11910;52.086;21.066;2023-07-09T07:22:34;21.70;99.90
23475;DHT22;11910;52.086;21.066;2023-07-09T07:24:59;21.80;99.90
23475;DHT22;11910;52.086;21.066;2023-07-09T07:27:25;21.90;99.90
23475;DHT22;11910;52.086;21.066;2023-07-09T07:29:51;22.00;99.90
23475;DHT22;11910;52.086;21.066;2023-07-09T07:32:16;22.00;99.90
23475;DHT22;11910;52.086;21.066;2023-07-09T07:34:42;22.10;99.90
23475;DHT22;11910;52.086;21.066;2023-07-09T07:37:07;22.10;99.90
23475;DHT22;11910;52.086;21.066;2023-07-09T07:39:33;22.20;99.90
23475;DHT22;11910;52.086;21.066;2023-07-09T07:41:58;22.20;99.90
23475;DHT22;11910;52.086;21.066;2023-07-09T07:44:24;22.30;99.90
23475;DHT22;11910;52.086;21.066;2023-07-09T07:46:50;22.50;99.90
23475;DHT22;11910;52.086;21.066;2023-07-09T07:49:15;22.70;99.90
23475;DHT22;11910;52.086;21.066;2023-07-09T07:51:41;22.90;99.90
23475;DHT22;11910;52.086;21.066;2023-07-09T07:54:07;22.90;99.90
23475;DHT22;11910;52.086;21.066;2023-07-09T07:56:36;23.00;99.20
23475;DHT22;11910;52.086;21.066;2023-07-09T07:59:02;23.10;97.50
23475;DHT22;11910;52.086;21.066;2023-07-09T08:01:28;23.20;97.80
23475;DHT22;11910;52.086;21.066;2023-07-09T08:03:54;23.20;97.90
23475;DHT22;11910;52.086;21.066;2023-07-09T08:06:20;23.40;97.80
23475;DHT22;11910;52.086;21.066;2023-07-09T08:08:46;23.50;98.90
23475;DHT22;11910;52.086;21.066;2023-07-09T08:11:11;23.60;93.20
23475;DHT22;11910;52.086;21.066;2023-07-09T08:13:38;23.60;96.50
23475;DHT22;11910;52.086;21.066;2023-07-09T08:16:05;23.70;97.30
23475;DHT22;11910;52.086;21.066;2023-07-09T08:18:30;23.90;96.70
23475;DHT22;11910;52.086;21.066;2023-07-09T08:20:57;24.10;94.70
23475;DHT22;11910;52.086;21.066;2023-07-09T08:23:23;24.10;94.60
23475;DHT22;11910;52.086;21.066;2023-07-09T08:25:59;24.30;95.20
23475;DHT22;11910;52.086;21.066;2023-07-09T08:28:25;24.40;91.50
23475;DHT22;11910;52.086;21.066;2023-07-09T08:30:52;24.50;95.60
23475;DHT22;11910;52.086;21.066;2023-07-09T08:33:18;24.60;94.00
23475;DHT22;11910;52.086;21.066;2023-07-09T08:35:44;24.80;94.40
23475;DHT22;11910;52.086;21.066;2023-07-09T08:38:10;24.90;94.50
23475;DHT22;11910;52.086;21.066;2023-07-09T08:40:49;25.00;89.40
23475;DHT22;11910;52.086;21.066;2023-07-09T08:43:47;24.90;90.30
23475;DHT22;11910;52.086;21.066;2023-07-09T08:48:41;25.10;89.60
23475;DHT22;11910;52.086;21.066;2023-07-09T08:53:51;25.10;86.20
23475;DHT22;11910;52.086;21.066;2023-07-09T08:56:20;25.20;84.80
23475;DHT22;11910;52.086;21.066;2023-07-09T08:58:48;25.30;89.00
23475;DHT22;11910;52.086;21.066;2023-07-09T09:01:30;25.40;89.60
23475;DHT22;11910;52.086;21.066;2023-07-09T09:04:04;25.50;85.70
23475;DHT22;11910;52.086;21.066;2023-07-09T09:06:31;25.60;77.80
23475;DHT22;11910;52.086;21.066;2023-07-09T09:11:43;25.80;80.80
23475;DHT22;11910;52.086;21.066;2023-07-09T09:14:35;25.80;82.50
23475;DHT22;11910;52.086;21.066;2023-07-09T09:17:03;26.10;78.90
23475;DHT22;11910;52.086;21.066;2023-07-09T09:19:47;26.30;84.50
23475;DHT22;11910;52.086;21.066;2023-07-09T09:22:17;26.40;77.80
23475;DHT22;11910;52.086;21.066;2023-07-09T09:27:36;26.90;77.80
23475;DHT22;11910;52.086;21.066;2023-07-09T09:30:04;27.20;70.80
23475;DHT22;11910;52.086;21.066;2023-07-09T09:32:41;27.50;73.60
23475;DHT22;11910;52.086;21.066;2023-07-09T09:35:14;27.80;68.50
23475;DHT22;11910;52.086;21.066;2023-07-09T09:37:40;28.40;68.50
23475;DHT22;11910;52.086;21.066;2023-07-09T09:40:09;29.20;75.90
23475;DHT22;11910;52.086;21.066;2023-07-09T09:42:34;30.10;67.90
23475;DHT22;11910;52.086;21.066;2023-07-09T09:45:01;30.90;63.30
23475;DHT22;11910;52.086;21.066;2023-07-09T09:47:27;31.50;63.60
23475;DHT22;11910;52.086;21.066;2023-07-09T09:49:56;32.20;63.20
23475;DHT22;11910;52.086;21.066;2023-07-09T09:52:29;32.80;58.80
23475;DHT22;11910;52.086;21.066;2023-07-09T09:55:19;33.20;58.10
23475;DHT22;11910;52.086;21.066;2023-07-09T09:57:50;33.40;55.10
23475;DHT22;11910;52.086;21.066;2023-07-09T10:00:17;34.20;56.80
23475;DHT22;11910;52.086;21.066;2023-07-09T10:02:43;35.00;56.30
23475;DHT22;11910;52.086;21.066;2023-07-09T10:05:27;35.40;48.30
23475;DHT22;11910;52.086;21.066;2023-07-09T10:08:16;35.90;50.20
23475;DHT22;11910;52.086;21.066;2023-07-09T10:10:46;36.10;46.80
23475;DHT22;11910;52.086;21.066;2023-07-09T10:13:48;36.50;53.30
23475;DHT22;11910;52.086;21.066;2023-07-09T10:18:49;37.00;48.30
23475;DHT22;11910;52.086;21.066;2023-07-09T10:21:21;37.60;47.40
23475;DHT22;11910;52.086;21.066;2023-07-09T10:24:05;38.30;47.90
23475;DHT22;11910;52.086;21.066;2023-07-09T10:26:47;38.80;50.40
23475;DHT22;11910;52.086;21.066;2023-07-09T10:35:22;39.20;46.10
23475;DHT22;11910;52.086;21.066;2023-07-09T10:40:20;39.60;44.70
23475;DHT22;11910;52.086;21.066;2023-07-09T10:42:53;39.70;45.90
23475;DHT22;11910;52.086;21.066;2023-07-09T10:45:24;40.30;39.60
23475;DHT22;11910;52.086;21.066;2023-07-09T10:48:01;40.30;41.40
23475;DHT22;11910;52.086;21.066;2023-07-09T10:50:32;41.00;42.70
23475;DHT22;11910;52.086;21.066;2023-07-09T10:56:10;41.70;43.40
23475;DHT22;11910;52.086;21.066;2023-07-09T10:58:39;42.00;40.60
23475;DHT22;11910;52.086;21.066;2023-07-09T11:01:06;42.10;35.90
23475;DHT22;11910;52.086;21.066;2023-07-09T11:03:50;42.20;38.30
23475;DHT22;11910;52.086;21.066;2023-07-09T11:08:54;42.20;38.70
23475;DHT22;11910;52.086;21.066;2023-07-09T11:11:33;42.60;42.70
23475;DHT22;11910;52.086;21.066;2023-07-09T11:14:04;42.30;37.20
23475;DHT22;11910;52.086;21.066;2023-07-09T11:16:37;42.40;39.00
23475;DHT22;11910;52.086;21.066;2023-07-09T11:19:05;42.80;36.30
23475;DHT22;11910;52.086;21.066;2023-07-09T11:21:32;42.80;37.40
23475;DHT22;11910;52.086;21.066;2023-07-09T11:24:01;42.30;36.70
23475;DHT22;11910;52.086;21.066;2023-07-09T11:26:34;41.80;37.50
23475;DHT22;11910;52.086;21.066;2023-07-09T11:31:38;41.10;33.70
23475;DHT22;11910;52.086;21.066;2023-07-09T11:36:33;42.40;42.50
23475;DHT22;11910;52.086;21.066;2023-07-09T11:39:00;42.80;39.20
23475;DHT22;11910;52.086;21.066;2023-07-09T11:41:41;42.50;36.60
23475;DHT22;11910;52.086;21.066;2023-07-09T11:44:20;41.10;36.40
23475;DHT22;11910;52.086;21.066;2023-07-09T11:50:20;37.30;36.60
23475;DHT22;11910;52.086;21.066;2023-07-09T11:52:55;35.50;41.30
23475;DHT22;11910;52.086;21.066;2023-07-09T11:55:40;34.80;42.10
23475;DHT22;11910;52.086;21.066;2023-07-09T11:58:11;34.20;42.00
23475;DHT22;11910;52.086;21.066;2023-07-09T12:00:40;33.50;46.40
23475;DHT22;11910;52.086;21.066;2023-07-09T12:03:19;33.20;42.70
23475;DHT22;11910;52.086;21.066;2023-07-09T12:05:54;32.80;46.10
23475;DHT22;11910;52.086;21.066;2023-07-09T12:08:27;32.60;44.80
23475;DHT22;11910;52.086;21.066;2023-07-09T12:10:53;32.50;46.80
23475;DHT22;11910;52.086;21.066;2023-07-09T12:13:19;32.30;49.60
23475;DHT22;11910;52.086;21.066;2023-07-09T12:15:45;32.10;45.60
23475;DHT22;11910;52.086;21.066;2023-07-09T12:18:14;31.80;46.40
23475;DHT22;11910;52.086;21.066;2023-07-09T12:20:41;31.60;46.70
23475;DHT22;11910;52.086;21.066;2023-07-09T12:23:31;31.40;49.90
23475;DHT22;11910;52.086;21.066;2023-07-09T12:26:02;31.20;45.70
23475;DHT22;11910;52.086;21.066;2023-07-09T12:28:28;31.10;48.50
23475;DHT22;11910;52.086;21.066;2023-07-09T12:30:55;31.00;48.80
23475;DHT22;11910;52.086;21.066;2023-07-09T12:33:25;31.00;49.40
23475;DHT22;11910;52.086;21.066;2023-07-09T12:35:59;30.90;47.40
23475;DHT22;11910;52.086;21.066;2023-07-09T12:38:30;30.80;47.00
23475;DHT22;11910;52.086;21.066;2023-07-09T12:41:00;30.70;48.70
23475;DHT22;11910;52.086;21.066;2023-07-09T12:43:28;30.60;49.00
23475;DHT22;11910;52.086;21.066;2023-07-09T12:45:57;30.40;45.80
23475;DHT22;11910;52.086;21.066;2023-07-09T12:48:26;30.30;47.00
23475;DHT22;11910;52.086;21.066;2023-07-09T12:50:55;30.20;46.70
23475;DHT22;11910;52.086;21.066;2023-07-09T12:53:24;30.20;48.70
23475;DHT22;11910;52.086;21.066;2023-07-09T12:55:55;30.20;47.80
23475;DHT22;11910;52.086;21.066;2023-07-09T12:58:32;30.20;48.40
23475;DHT22;11910;52.086;21.066;2023-07-09T13:01:07;30.10;48.80
23475;DHT22;11910;52.086;21.066;2023-07-09T13:03:34;30.00;49.30
23475;DHT22;11910;52.086;21.066;2023-07-09T13:06:00;30.00;49.40
23475;DHT22;11910;52.086;21.066;2023-07-09T13:08:28;29.90;47.10
23475;DHT22;11910;52.086;21.066;2023-07-09T13:10:55;29.70;45.70
23475;DHT22;11910;52.086;21.066;2023-07-09T13:13:23;29.70;48.30
23475;DHT22;11910;52.086;21.066;2023-07-09T13:16:01;29.60;46.80
23475;DHT22;11910;52.086;21.066;2023-07-09T13:18:28;29.50;48.20
23475;DHT22;11910;52.086;21.066;2023-07-09T13:20:55;29.30;45.20
23475;DHT22;11910;52.086;21.066;2023-07-09T13:23:24;29.30;46.30
23475;DHT22;11910;52.086;21.066;2023-07-09T13:25:51;29.30;50.40
23475;DHT22;11910;52.086;21.066;2023-07-09T13:28:20;29.20;50.00
23475;DHT22;11910;52.086;21.066;2023-07-09T13:30:48;29.20;48.70
23475;DHT22;11910;52.086;21.066;2023-07-09T13:33:16;29.20;49.60
23475;DHT22;11910;52.086;21.066;2023-07-09T13:35:43;29.20;49.40
23475;DHT22;11910;52.086;21.066;2023-07-09T13:38:17;29.20;52.00
23475;DHT22;11910;52.086;21.066;2023-07-09T13:40:46;29.20;49.40
23475;DHT22;11910;52.086;21.066;2023-07-09T13:43:14;29.20;49.60
23475;DHT22;11910;52.086;21.066;2023-07-09T13:45:40;29.20;49.30
23475;DHT22;11910;52.086;21.066;2023-07-09T13:48:15;29.20;48.00
23475;DHT22;11910;52.086;21.066;2023-07-09T13:50:42;29.30;47.40
23475;DHT22;11910;52.086;21.066;2023-07-09T13:53:14;29.10;47.00
23475;DHT22;11910;52.086;21.066;2023-07-09T13:55:41;29.10;49.10
23475;DHT22;11910;52.086;21.066;2023-07-09T13:58:10;29.10;52.50
23475;DHT22;11910;52.086;21.066;2023-07-09T14:00:36;29.10;51.40
23475;DHT22;11910;52.086;21.066;2023-07-09T14:03:01;29.00;50.20
23475;DHT22;11910;52.086;21.066;2023-07-09T14:05:28;29.00;51.10
23475;DHT22;11910;52.086;21.066;2023-07-09T14:07:54;29.10;48.20
23475;DHT22;11910;52.086;21.066;2023-07-09T14:10:19;29.10;48.90
23475;DHT22;11910;52.086;21.066;2023-07-09T14:12:46;29.10;48.40
23475;DHT22;11910;52.086;21.066;2023-07-09T14:15:18;29.00;48.00
23475;DHT22;11910;52.086;21.066;2023-07-09T14:17:45;29.00;46.90
23475;DHT22;11910;52.086;21.066;2023-07-09T14:20:13;28.90;46.10
23475;DHT22;11910;52.086;21.066;2023-07-09T14:22:40;28.90;45.70
23475;DHT22;11910;52.086;21.066;2023-07-09T14:25:21;28.80;46.00
23475;DHT22;11910;52.086;21.066;2023-07-09T14:27:52;28.80;48.30
23475;DHT22;11910;52.086;21.066;2023-07-09T14:30:21;28.70;49.00
23475;DHT22;11910;52.086;21.066;2023-07-09T14:32:48;28.70;50.80
23475;DHT22;11910;52.086;21.066;2023-07-09T14:35:19;28.60;47.60
23475;DHT22;11910;52.086;21.066;2023-07-09T14:37:47;28.60;50.10
23475;DHT22;11910;52.086;21.066;2023-07-09T14:40:14;28.60;52.40
23475;DHT22;11910;52.086;21.066;2023-07-09T14:42:41;28.50;54.60
23475;DHT22;11910;52.086;21.066;2023-07-09T14:45:20;28.40;51.20
23475;DHT22;11910;52.086;21.066;2023-07-09T14:47:47;28.40;51.00
23475;DHT22;11910;52.086;21.066;2023-07-09T14:50:14;28.30;52.10
23475;DHT22;11910;52.086;21.066;2023-07-09T14:52:41;28.30;50.80
23475;DHT22;11910;52.086;21.066;2023-07-09T14:55:16;28.30;51.70
23475;DHT22;11910;52.086;21.066;2023-07-09T14:57:43;28.20;49.40
23475;DHT22;11910;52.086;21.066;2023-07-09T15:00:14;28.20;49.60
23475;DHT22;11910;52.086;21.066;2023-07-09T15:02:42;28.10;49.80
23475;DHT22;11910;52.086;21.066;2023-07-09T15:05:23;28.10;49.40
23475;DHT22;11910;52.086;21.066;2023-07-09T15:07:49;28.10;49.00
23475;DHT22;11910;52.086;21.066;2023-07-09T15:10:24;28.00;49.60
23475;DHT22;11910;52.086;21.066;2023-07-09T15:12:50;27.90;50.10
23475;DHT22;11910;52.086;21.066;2023-07-09T15:15:31;27.90;50.10
23475;DHT22;11910;52.086;21.066;2023-07-09T15:18:00;27.80;50.20
23475;DHT22;11910;52.086;21.066;2023-07-09T15:20:29;27.80;49.80
23475;DHT22;11910;52.086;21.066;2023-07-09T15:22:59;27.80;49.90
23475;DHT22;11910;52.086;21.066;2023-07-09T15:25:29;27.80;48.10
23475;DHT22;11910;52.086;21.066;2023-07-09T15:27:56;27.70;48.50
23475;DHT22;11910;52.086;21.066;2023-07-09T15:30:24;27.70;49.60
23475;DHT22;11910;52.086;21.066;2023-07-09T15:32:50;27.60;49.80
23475;DHT22;11910;52.086;21.066;2023-07-09T15:35:18;27.60;50.60
23475;DHT22;11910;52.086;21.066;2023-07-09T15:37:44;27.50;50.40
23475;DHT22;11910;52.086;21.066;2023-07-09T15:40:20;27.50;51.40
23475;DHT22;11910;52.086;21.066;2023-07-09T15:42:48;27.40;51.10
23475;DHT22;11910;52.086;21.066;2023-07-09T15:45:16;27.50;50.00
23475;DHT22;11910;52.086;21.066;2023-07-09T15:47:43;27.50;49.00
23475;DHT22;11910;52.086;21.066;2023-07-09T15:52:44;27.50;50.90
23475;DHT22;11910;52.086;21.066;2023-07-09T15:55:24;27.80;49.80
23475;DHT22;11910;52.086;21.066;2023-07-09T15:57:52;28.50;49.80
23475;DHT22;11910;52.086;21.066;2023-07-09T16:00:28;31.60;46.90
23475;DHT22;11910;52.086;21.066;2023-07-09T16:02:55;32.90;45.60